createdAt,value
2022-10-18T00:00:07.016Z,11.73
2022-10-18T00:02:35.610Z,11.32
2022-10-18T00:05:03.538Z,10.50
2022-10-18T00:07:31.050Z,10.15
2022-10-18T00:09:58.448Z,11.65
2022-10-18T00:12:25.748Z,10.75
2022-10-18T00:14:53.250Z,11.30
2022-10-18T00:17:20.754Z,11.25
2022-10-18T00:19:50.307Z,10.77
2022-10-18T00:22:17.579Z,11.15
2022-10-18T00:24:44.781Z,10.70
2022-10-18T00:27:12.065Z,10.63
2022-10-18T00:29:39.302Z,10.82
2022-10-18T00:32:06.648Z,10.07
2022-10-18T00:34:34.158Z,9.30
2022-10-18T00:37:01.508Z,10.32
2022-10-18T00:39:28.780Z,9.93
2022-10-18T00:41:56.185Z,9.52
2022-10-18T00:44:29.506Z,9.35
2022-10-18T00:46:58.974Z,9.55
2022-10-18T00:49:29.400Z,8.90
2022-10-18T00:52:08.703Z,9.43
2022-10-18T00:54:37.807Z,8.88
2022-10-18T00:57:05.872Z,9.30
2022-10-18T00:59:33.246Z,8.60
2022-10-18T01:02:00.492Z,10.07
2022-10-18T01:04:27.736Z,10.32
2022-10-18T01:07:01.056Z,11.15
2022-10-18T01:09:46.104Z,11.40
2022-10-18T01:12:20.611Z,10.55
2022-10-18T01:14:54.957Z,10.63
2022-10-18T01:17:28.195Z,10.00
2022-10-18T01:20:18.320Z,10.23
2022-10-18T01:22:56.596Z,9.52
2022-10-18T01:25:26.873Z,10.02
2022-10-18T01:27:57.927Z,9.43
2022-10-18T01:30:33.398Z,9.77
2022-10-18T01:33:05.806Z,9.80
2022-10-18T01:35:36.080Z,9.55
2022-10-18T01:38:04.660Z,8.52
2022-10-18T01:40:33.124Z,9.13
2022-10-18T01:43:01.234Z,9.32
2022-10-18T01:45:28.975Z,9.10
2022-10-18T01:47:56.387Z,9.13
2022-10-18T01:50:30.759Z,8.57
2022-10-18T01:52:58.618Z,10.25
2022-10-18T01:55:28.215Z,9.52
2022-10-18T01:58:04.625Z,9.38
2022-10-18T02:00:39.831Z,9.70
2022-10-18T02:03:11.767Z,8.85
2022-10-18T02:08:22.422Z,8.45
2022-10-18T02:11:02.792Z,8.30
2022-10-18T02:13:32.105Z,7.65
2022-10-18T02:16:01.489Z,8.20
2022-10-18T02:18:31.122Z,8.25
2022-10-18T02:20:58.811Z,8.07
2022-10-18T02:23:27.035Z,7.60
2022-10-18T02:25:54.777Z,7.32
2022-10-18T02:28:22.417Z,8.52
2022-10-18T02:30:59.541Z,7.90
2022-10-18T02:33:32.796Z,7.32
2022-10-18T02:36:01.811Z,7.20
2022-10-18T02:38:29.700Z,7.82
2022-10-18T02:40:56.973Z,7.78
2022-10-18T02:43:25.196Z,7.70
2022-10-18T02:45:52.914Z,6.78
2022-10-18T02:48:20.127Z,7.95
2022-10-18T02:50:47.374Z,8.52
2022-10-18T02:53:14.618Z,8.02
2022-10-18T02:55:41.845Z,8.55
2022-10-18T02:58:09.016Z,8.30
2022-10-18T03:00:36.217Z,7.95
2022-10-18T03:03:03.412Z,7.68
2022-10-18T03:05:30.629Z,7.10
2022-10-18T03:07:58.105Z,8.45
2022-10-18T03:10:25.324Z,7.90
2022-10-18T03:12:52.512Z,8.73
2022-10-18T03:15:19.702Z,8.23
2022-10-18T03:17:46.843Z,8.63
2022-10-18T03:20:14.252Z,8.82
2022-10-18T03:22:41.429Z,8.20
2022-10-18T03:25:08.725Z,8.25
2022-10-18T03:27:35.978Z,7.72
2022-10-18T03:30:03.286Z,8.23
2022-10-18T03:32:30.693Z,7.97
2022-10-18T03:34:58.125Z,8.80
2022-10-18T03:37:25.298Z,8.85
2022-10-18T03:39:52.783Z,9.18
2022-10-18T03:42:19.984Z,8.77
2022-10-18T03:44:47.196Z,7.97
2022-10-18T03:47:14.431Z,8.20
2022-10-18T03:49:41.684Z,7.82
2022-10-18T03:52:08.946Z,8.70
2022-10-18T03:54:36.230Z,8.10
2022-10-18T03:57:03.564Z,8.75
2022-10-18T03:59:30.786Z,7.60
2022-10-18T04:01:58.245Z,7.10
2022-10-18T04:04:25.562Z,7.72
2022-10-18T04:06:52.745Z,7.32
2022-10-18T04:09:19.925Z,7.38
2022-10-18T04:11:47.229Z,8.80
2022-10-18T04:14:14.522Z,7.05
2022-10-18T04:16:41.713Z,6.65
2022-10-18T04:19:08.986Z,6.88
2022-10-18T04:21:36.559Z,7.88
2022-10-18T04:24:03.845Z,8.50
2022-10-18T04:26:31.045Z,7.38
2022-10-18T04:28:58.390Z,7.07
2022-10-18T04:31:25.664Z,7.85
2022-10-18T04:33:53.401Z,7.45
2022-10-18T04:36:20.593Z,8.07
2022-10-18T04:38:47.776Z,7.43
2022-10-18T04:41:14.962Z,8.30
2022-10-18T04:43:42.186Z,8.20
2022-10-18T04:46:09.387Z,8.05
2022-10-18T04:48:36.765Z,7.30
2022-10-18T04:51:04.015Z,7.38
2022-10-18T04:53:31.327Z,7.20
2022-10-18T04:55:58.621Z,6.88
2022-10-18T04:58:25.927Z,6.40
2022-10-18T05:00:53.219Z,6.13
2022-10-18T05:03:20.436Z,6.53
2022-10-18T05:06:01.392Z,7.22
2022-10-18T05:08:30.302Z,5.43
2022-10-18T05:10:57.605Z,6.00
2022-10-18T05:13:25.053Z,6.72
2022-10-18T05:15:52.285Z,5.65
2022-10-18T05:18:19.950Z,6.35
2022-10-18T05:20:47.450Z,6.10
2022-10-18T05:23:14.734Z,6.72
2022-10-18T05:25:42.828Z,6.03
2022-10-18T05:28:15.676Z,5.88
2022-10-18T05:30:54.716Z,5.82
2022-10-18T05:33:21.877Z,6.63
2022-10-18T05:35:49.047Z,5.80
2022-10-18T05:38:16.287Z,6.45
2022-10-18T05:40:43.488Z,6.63
2022-10-18T05:43:10.640Z,7.03
2022-10-18T05:45:37.869Z,5.80
2022-10-18T05:48:07.440Z,6.63
2022-10-18T05:50:36.755Z,6.55
2022-10-18T05:53:12.428Z,6.32
2022-10-18T05:55:40.055Z,5.97
2022-10-18T05:58:07.281Z,6.47
2022-10-18T06:00:34.642Z,6.47
2022-10-18T06:03:01.871Z,6.43
2022-10-18T06:05:29.240Z,7.15
2022-10-18T06:07:57.040Z,6.38
2022-10-18T06:10:24.225Z,6.65
2022-10-18T06:12:51.437Z,7.38
2022-10-18T06:15:18.816Z,6.78
2022-10-18T06:17:46.087Z,7.00
2022-10-18T06:20:13.353Z,6.43
2022-10-18T06:22:40.579Z,7.20
2022-10-18T06:25:08.109Z,7.20
2022-10-18T06:27:35.821Z,7.10
2022-10-18T06:30:03.188Z,5.53
2022-10-18T06:32:30.339Z,7.15
2022-10-18T06:34:57.630Z,7.32
2022-10-18T06:37:24.891Z,7.55
2022-10-18T06:39:52.140Z,8.65
2022-10-18T06:42:22.549Z,7.13
2022-10-18T06:44:50.229Z,8.18
2022-10-18T06:47:17.581Z,8.20
2022-10-18T06:49:44.814Z,7.35
2022-10-18T06:52:11.975Z,7.60
2022-10-18T06:54:39.458Z,8.75
2022-10-18T06:57:06.895Z,8.65
2022-10-18T06:59:35.478Z,9.18
2022-10-18T07:02:02.713Z,8.50
2022-10-18T07:04:33.473Z,8.60
2022-10-18T07:07:00.888Z,9.10
2022-10-18T07:09:28.125Z,8.40
2022-10-18T07:11:55.537Z,8.10
2022-10-18T07:14:26.911Z,8.63
2022-10-18T07:16:56.400Z,8.45
2022-10-18T07:19:23.565Z,8.65
2022-10-18T07:21:50.847Z,8.05
2022-10-18T07:24:18.339Z,7.38
2022-10-18T07:26:45.873Z,7.68
2022-10-18T07:29:13.374Z,6.93
2022-10-18T07:31:40.916Z,8.00
2022-10-18T07:34:10.924Z,7.82
2022-10-18T07:36:38.484Z,7.57
2022-10-18T07:39:06.072Z,8.05
2022-10-18T07:41:34.079Z,7.93
2022-10-18T07:44:01.858Z,7.50
2022-10-18T07:46:29.284Z,9.25
2022-10-18T07:48:58.321Z,8.88
2022-10-18T07:51:25.755Z,9.13
2022-10-18T07:53:52.923Z,8.63
2022-10-18T07:56:21.604Z,8.13
2022-10-18T07:58:56.907Z,7.28
2022-10-18T08:01:25.163Z,7.82
2022-10-18T08:03:52.978Z,6.80
2022-10-18T08:06:21.001Z,8.57
2022-10-18T08:08:48.482Z,8.63
2022-10-18T08:11:17.393Z,8.38
2022-10-18T08:13:44.760Z,8.65
2022-10-18T08:16:13.452Z,7.60
2022-10-18T08:18:40.735Z,7.50
2022-10-18T08:21:09.281Z,7.07
2022-10-18T08:23:36.953Z,7.88
2022-10-18T08:26:05.587Z,7.82
2022-10-18T08:28:33.777Z,7.07
2022-10-18T08:31:08.574Z,7.35
2022-10-18T08:33:36.198Z,7.47
2022-10-18T08:36:07.703Z,6.53
2022-10-18T08:38:35.995Z,6.70
2022-10-18T08:41:21.895Z,6.40
2022-10-18T08:44:01.071Z,7.45
2022-10-18T08:46:31.567Z,6.40
2022-10-18T08:48:59.979Z,6.60
2022-10-18T08:51:40.364Z,6.38
2022-10-18T08:54:12.836Z,6.03
2022-10-18T08:56:41.524Z,6.55
2022-10-18T08:59:12.465Z,6.65
2022-10-18T09:01:49.428Z,6.22
2022-10-18T09:04:34.165Z,6.30
2022-10-18T09:07:20.576Z,6.57
2022-10-18T09:10:00.910Z,6.53
2022-10-18T09:12:39.322Z,6.30
2022-10-18T09:15:36.093Z,5.93
2022-10-18T09:18:25.793Z,6.05
2022-10-18T09:20:56.173Z,6.90
2022-10-18T09:23:31.890Z,6.20
2022-10-18T09:26:11.403Z,7.28
2022-10-18T09:28:45.639Z,7.07
2022-10-18T09:31:18.508Z,8.02
2022-10-18T09:34:01.849Z,7.75
2022-10-18T09:36:35.483Z,8.77
2022-10-18T09:39:10.227Z,8.05
2022-10-18T09:41:45.136Z,8.55
2022-10-18T09:44:24.012Z,9.63
2022-10-18T09:47:02.265Z,9.10
2022-10-18T09:49:31.611Z,8.98
2022-10-18T09:52:00.676Z,8.98
2022-10-18T09:54:34.623Z,10.07
2022-10-18T09:57:14.532Z,10.23
2022-10-18T09:59:49.304Z,11.07
2022-10-18T10:02:23.681Z,10.45
2022-10-18T10:04:51.599Z,11.48
2022-10-18T10:07:20.532Z,11.20
2022-10-18T10:10:05.751Z,11.55
2022-10-18T10:12:34.598Z,12.52
2022-10-18T10:15:19.303Z,10.98
2022-10-18T10:18:05.332Z,10.88
2022-10-18T10:20:49.074Z,10.43
2022-10-18T10:23:28.149Z,8.68
2022-10-18T10:25:57.232Z,6.53
2022-10-18T10:28:26.909Z,6.93
2022-10-18T10:30:54.274Z,7.65
2022-10-18T10:33:38.552Z,8.43
2022-10-18T10:36:07.388Z,7.95
2022-10-18T10:38:34.686Z,6.55
2022-10-18T10:41:01.981Z,8.20
2022-10-18T10:43:44.314Z,8.38
2022-10-18T10:46:13.477Z,8.90
2022-10-18T10:48:56.294Z,8.18
2022-10-18T10:51:37.459Z,7.68
2022-10-18T10:54:16.440Z,7.15
2022-10-18T10:57:11.249Z,7.47
2022-10-18T10:59:52.510Z,7.40
2022-10-18T11:02:26.777Z,7.55
2022-10-18T11:04:55.212Z,8.32
2022-10-18T11:07:31.156Z,7.57
2022-10-18T11:10:14.797Z,8.90
2022-10-18T11:12:44.328Z,8.98
2022-10-18T11:15:14.402Z,8.70
2022-10-18T11:17:49.256Z,9.02
2022-10-18T11:20:19.596Z,9.00
2022-10-18T11:22:54.234Z,8.95
2022-10-18T11:25:22.379Z,8.50
2022-10-18T11:28:00.350Z,8.38
2022-10-18T11:30:27.609Z,8.15
2022-10-18T11:32:54.823Z,8.52
2022-10-18T11:35:34.412Z,8.07
2022-10-18T11:38:14.852Z,8.05
2022-10-18T11:41:00.554Z,8.18
2022-10-18T11:43:50.546Z,7.53
2022-10-18T11:46:30.467Z,6.97
2022-10-18T11:49:06.303Z,6.28
2022-10-18T11:52:07.449Z,6.57
2022-10-18T11:54:50.657Z,6.13
2022-10-18T11:57:20.967Z,5.88
2022-10-18T12:00:00.026Z,6.30
2022-10-18T12:02:46.116Z,5.95
2022-10-18T12:05:28.984Z,5.60
2022-10-18T12:07:59.381Z,5.60
2022-10-18T12:10:39.297Z,6.05
2022-10-18T12:13:18.828Z,5.47
2022-10-18T12:15:46.671Z,4.65
2022-10-18T12:18:16.719Z,5.70
2022-10-18T12:20:46.437Z,5.30
2022-10-18T12:23:17.647Z,5.28
2022-10-18T12:25:50.953Z,5.43
2022-10-18T12:28:18.262Z,5.07
2022-10-18T12:30:54.553Z,5.22
2022-10-18T12:33:28.804Z,5.10
2022-10-18T12:36:16.122Z,5.03
2022-10-18T12:38:45.657Z,5.22
2022-10-18T12:41:25.587Z,5.00
2022-10-18T12:44:06.989Z,5.32
2022-10-18T12:46:45.943Z,5.00
2022-10-18T12:49:14.044Z,5.05
2022-10-18T12:52:01.146Z,5.90
2022-10-18T12:54:30.422Z,5.22
2022-10-18T12:56:58.417Z,4.40
2022-10-18T12:59:28.748Z,4.88
2022-10-18T13:01:56.008Z,4.30
2022-10-18T13:04:29.515Z,4.82
2022-10-18T13:07:05.348Z,5.50
2022-10-18T13:09:37.009Z,4.57
2022-10-18T13:12:07.039Z,4.57
2022-10-18T13:15:05.905Z,4.72
2022-10-18T13:17:43.264Z,4.60
2022-10-18T13:20:25.578Z,4.30
2022-10-18T13:23:00.815Z,4.53
2022-10-18T13:25:46.847Z,5.13
2022-10-18T13:28:17.065Z,4.78
2022-10-18T13:31:10.618Z,5.13
2022-10-18T13:33:39.577Z,6.57
2022-10-18T13:36:22.885Z,4.47
2022-10-18T13:38:50.844Z,4.90
2022-10-18T13:41:19.872Z,5.00
2022-10-18T13:43:53.421Z,4.93
2022-10-18T13:46:21.425Z,4.45
2022-10-18T13:48:52.609Z,5.40
2022-10-18T13:51:36.686Z,5.00
2022-10-18T13:54:22.611Z,4.82
2022-10-18T13:56:49.976Z,5.15
2022-10-18T14:02:11.401Z,4.90
2022-10-18T14:04:43.081Z,5.38
2022-10-18T14:09:46.062Z,6.40
2022-10-18T14:12:27.292Z,4.60
2022-10-18T14:15:05.949Z,5.45
2022-10-18T14:17:42.587Z,5.40
2022-10-18T14:20:24.801Z,5.03
2022-10-18T14:23:22.564Z,5.15
2022-10-18T14:25:49.771Z,4.43
2022-10-18T14:28:27.460Z,5.40
2022-10-18T14:31:08.575Z,4.60
2022-10-18T14:33:57.593Z,4.95
2022-10-18T14:36:40.994Z,4.93
2022-10-18T14:39:16.033Z,5.38
2022-10-18T14:41:50.989Z,4.97
2022-10-18T14:44:20.994Z,4.80
2022-10-18T14:46:52.544Z,5.15
2022-10-18T14:49:21.139Z,4.85
2022-10-18T14:51:50.732Z,4.78
2022-10-18T14:54:25.087Z,5.13
2022-10-18T14:56:55.128Z,4.80
2022-10-18T14:59:26.640Z,4.78
2022-10-18T15:01:58.828Z,4.43
2022-10-18T15:04:32.677Z,4.22
2022-10-18T15:07:01.185Z,4.68
2022-10-18T15:12:01.412Z,4.70
2022-10-18T15:14:29.419Z,5.40
2022-10-18T15:17:05.484Z,5.10
2022-10-18T15:19:34.977Z,5.82
2022-10-18T15:25:15.617Z,5.63
2022-10-18T15:27:48.778Z,5.55
2022-10-18T15:30:18.435Z,5.78
2022-10-18T15:32:54.405Z,6.10
2022-10-18T15:35:26.818Z,7.07
2022-10-18T15:37:55.674Z,15.27
2022-10-18T15:40:22.842Z,24.67
2022-10-18T15:42:50.835Z,38.47
2022-10-18T15:45:24.466Z,31.15
2022-10-18T15:48:09.109Z,23.60
2022-10-18T15:50:39.108Z,20.52
2022-10-18T15:53:23.954Z,16.27
2022-10-18T15:55:55.505Z,13.43
2022-10-18T15:58:26.443Z,10.40
2022-10-18T16:00:55.421Z,11.13
2022-10-18T16:03:23.966Z,12.57
2022-10-18T16:05:57.258Z,10.65
2022-10-18T16:08:25.633Z,11.80
2022-10-18T16:10:53.167Z,8.82
2022-10-18T16:13:20.527Z,8.90
2022-10-18T16:15:47.986Z,9.13
2022-10-18T16:18:16.655Z,8.10
2022-10-18T16:20:43.899Z,7.22
2022-10-18T16:23:18.953Z,7.63
2022-10-18T16:25:46.395Z,7.45
2022-10-18T16:28:14.686Z,7.35
2022-10-18T16:30:43.140Z,8.88
2022-10-18T16:33:10.413Z,12.02
2022-10-18T16:35:37.973Z,12.43
2022-10-18T16:38:05.234Z,13.25
2022-10-18T16:40:33.248Z,15.80
2022-10-18T16:43:01.807Z,14.75
2022-10-18T16:45:29.037Z,15.50
2022-10-18T16:47:56.274Z,20.95
2022-10-18T16:50:23.440Z,19.83
2022-10-18T16:52:50.739Z,18.67
2022-10-18T16:55:24.732Z,15.63
2022-10-18T16:57:52.289Z,14.45
2022-10-18T17:00:20.953Z,13.68
2022-10-18T17:02:48.858Z,12.50
2022-10-18T17:05:16.792Z,12.75
2022-10-18T17:07:44.084Z,13.15
2022-10-18T17:10:15.388Z,14.45
2022-10-18T17:12:42.711Z,14.48
2022-10-18T17:15:10.160Z,13.23
2022-10-18T17:17:37.826Z,12.63
2022-10-18T17:20:07.315Z,10.70
2022-10-18T17:22:34.969Z,11.68
2022-10-18T17:25:10.022Z,12.90
2022-10-18T17:27:42.807Z,14.30
2022-10-18T17:30:20.184Z,16.83
2022-10-18T17:32:51.600Z,15.55
2022-10-18T17:35:19.038Z,14.07
2022-10-18T17:37:52.264Z,12.85
2022-10-18T17:40:20.046Z,18.48
2022-10-18T17:42:47.248Z,13.85
2022-10-18T17:45:14.480Z,14.65
2022-10-18T17:47:41.695Z,23.75
2022-10-18T17:50:10.152Z,24.55
2022-10-18T17:55:09.004Z,23.33
2022-10-18T17:57:36.197Z,18.42
2022-10-18T18:00:05.000Z,17.77
2022-10-18T18:02:41.912Z,16.70
2022-10-18T18:05:09.756Z,16.10
2022-10-18T18:07:36.939Z,19.75
2022-10-18T18:10:04.261Z,21.75
2022-10-18T18:12:31.656Z,22.70
2022-10-18T18:14:59.223Z,24.13
2022-10-18T18:17:34.125Z,20.75
2022-10-18T18:20:02.647Z,23.05
2022-10-18T18:22:30.143Z,20.48
2022-10-18T18:24:57.876Z,20.08
2022-10-18T18:27:27.839Z,19.92
2022-10-18T18:29:56.454Z,21.80
2022-10-18T18:32:23.680Z,20.70
2022-10-18T18:34:50.907Z,16.80
2022-10-18T18:37:18.093Z,20.90
2022-10-18T18:39:45.648Z,20.55
2022-10-18T18:42:12.933Z,18.83
2022-10-18T18:44:40.194Z,15.57
2022-10-18T18:47:13.004Z,15.13
2022-10-18T18:49:40.616Z,15.05
2022-10-18T18:52:07.845Z,14.00
2022-10-18T18:54:35.046Z,13.05
2022-10-18T18:57:05.250Z,13.90
2022-10-18T18:59:32.571Z,13.75
2022-10-18T19:01:59.730Z,13.30
2022-10-18T19:04:28.898Z,12.93
2022-10-18T19:06:56.251Z,13.10
2022-10-18T19:09:23.881Z,17.58
2022-10-18T19:11:55.121Z,19.08
2022-10-18T19:14:24.713Z,15.02
2022-10-18T19:16:59.236Z,11.60
2022-10-18T19:19:27.464Z,11.90
2022-10-18T19:21:55.962Z,11.10
2022-10-18T19:24:24.460Z,11.05
2022-10-18T19:26:53.124Z,11.48
2022-10-18T19:29:24.681Z,11.05
2022-10-18T19:31:52.679Z,11.20
2022-10-18T19:34:20.459Z,9.75
2022-10-18T19:36:48.109Z,11.43
2022-10-18T19:39:18.202Z,12.35
2022-10-18T19:41:46.374Z,12.43
2022-10-18T19:44:13.957Z,12.48
2022-10-18T19:46:41.223Z,12.02
2022-10-18T19:49:08.450Z,11.55
2022-10-18T19:51:35.801Z,13.27
2022-10-18T19:54:03.329Z,13.18
2022-10-18T19:56:30.747Z,13.23
2022-10-18T19:58:58.748Z,11.30
2022-10-18T20:01:26.585Z,12.45
2022-10-18T20:03:54.431Z,13.13
2022-10-18T20:06:21.848Z,12.05
2022-10-18T20:08:49.239Z,12.68
2022-10-18T20:11:18.173Z,11.93
2022-10-18T20:13:45.433Z,12.63
2022-10-18T20:16:13.341Z,12.15
2022-10-18T20:18:43.568Z,12.38
2022-10-18T20:21:12.831Z,12.52
2022-10-18T20:23:40.792Z,11.65
2022-10-18T20:26:09.604Z,11.52
2022-10-18T20:28:38.242Z,10.82
2022-10-18T20:31:19.018Z,12.93
2022-10-18T20:33:47.128Z,12.32
2022-10-18T20:36:15.349Z,12.20
2022-10-18T20:38:43.604Z,12.60
2022-10-18T20:41:12.217Z,12.05
2022-10-18T20:43:39.559Z,11.68
2022-10-18T20:46:07.332Z,11.75
2022-10-18T20:48:34.799Z,12.18
2022-10-18T20:51:05.921Z,11.52
2022-10-18T20:53:33.502Z,12.65
2022-10-18T20:56:09.872Z,16.33
2022-10-18T20:58:37.888Z,16.13
2022-10-18T21:01:06.263Z,16.60
2022-10-18T21:03:33.825Z,15.55
2022-10-18T21:06:02.220Z,16.00
2022-10-18T21:08:29.793Z,15.93
2022-10-18T21:10:57.113Z,13.85
2022-10-18T21:13:24.643Z,14.85
2022-10-18T21:15:57.124Z,14.02
2022-10-18T21:18:28.393Z,14.68
2022-10-18T21:20:55.904Z,14.50
2022-10-18T21:23:23.122Z,14.50
2022-10-18T21:25:50.387Z,15.63
2022-10-18T21:28:18.576Z,15.23
2022-10-18T21:30:46.137Z,14.48
2022-10-18T21:33:15.407Z,15.65
2022-10-18T21:35:42.716Z,16.80
2022-10-18T21:38:10.068Z,18.77
2022-10-18T21:40:39.642Z,19.42
2022-10-18T21:43:06.846Z,18.80
2022-10-18T21:45:34.440Z,17.00
2022-10-18T21:48:01.725Z,17.13
2022-10-18T21:50:28.895Z,16.00
2022-10-18T21:52:56.142Z,16.15
2022-10-18T21:55:23.329Z,15.63
2022-10-18T21:57:50.544Z,16.48
2022-10-18T22:00:18.744Z,16.10
2022-10-18T22:02:45.992Z,17.70
2022-10-18T22:05:13.242Z,16.60
2022-10-18T22:07:40.631Z,17.30
2022-10-18T22:10:08.106Z,16.10
2022-10-18T22:12:35.371Z,17.20
2022-10-18T22:15:02.683Z,17.13
2022-10-18T22:17:30.129Z,16.95
2022-10-18T22:19:59.010Z,15.85
2022-10-18T22:22:26.220Z,16.42
2022-10-18T22:24:53.376Z,16.92
2022-10-18T22:27:20.626Z,13.70
2022-10-18T22:29:47.825Z,15.23
2022-10-18T22:32:15.033Z,15.38
2022-10-18T22:34:42.290Z,15.65
2022-10-18T22:37:09.559Z,15.65
2022-10-18T22:39:36.740Z,16.80
2022-10-18T22:42:06.006Z,16.23
2022-10-18T22:44:36.250Z,15.23
2022-10-18T22:47:03.532Z,16.45
2022-10-18T22:49:30.816Z,17.45
2022-10-18T22:51:58.039Z,17.25
2022-10-18T22:54:25.244Z,18.02
2022-10-18T22:56:52.617Z,17.63
2022-10-18T22:59:19.992Z,17.15
2022-10-18T23:01:47.214Z,15.65
2022-10-18T23:04:14.477Z,16.52
2022-10-18T23:06:41.788Z,16.80
2022-10-18T23:09:13.250Z,17.13
2022-10-18T23:11:40.553Z,17.05
2022-10-18T23:14:08.197Z,17.05
2022-10-18T23:16:35.563Z,15.27
2022-10-18T23:19:02.961Z,16.58
2022-10-18T23:21:30.505Z,17.05
2022-10-18T23:23:57.988Z,19.70
2022-10-18T23:26:29.411Z,23.00
2022-10-18T23:28:56.787Z,18.88
2022-10-18T23:31:31.644Z,19.40
2022-10-18T23:34:00.734Z,17.58
2022-10-18T23:36:28.099Z,18.60
2022-10-18T23:38:55.391Z,17.80
2022-10-18T23:41:23.084Z,17.02
2022-10-18T23:43:50.343Z,17.35
2022-10-18T23:46:18.110Z,18.73
2022-10-18T23:48:45.491Z,20.45
2022-10-18T23:51:17.456Z,22.50
2022-10-18T23:53:44.949Z,20.92
2022-10-18T23:56:13.416Z,24.92
2022-10-18T23:58:41.313Z,23.98
